Time;durP1;ratioP1;P1;durP2;ratioP2;P2;SDS_P1;SDS_P2;PMS_P1;PMS_P2;Temp;Humidity;BMP_temperature;BMP_pressure;BME280_temperature;BME280_humidity;BME280_pressure;Samples;Min_cycle;Max_cycle;Signal;HPM_P1;HPM_P2
2021/11/17 02:28:15;;;;;;;38.47;7.45;;;;;;;;;;5066661;28;20036;-51
2021/11/17 02:30:55;;;;;;;50.95;8.15;;;;;;;;;;5054318;28;20021;-51
2021/11/17 02:33:32;;;;;;;34.65;6.93;;;;;;;;;;5072832;28;20032;-51
2021/11/17 02:36:00;;;;;;;38.55;7.30;;;;;;;;;;5079240;28;20032;-50
2021/11/17 02:38:33;;;;;;;34.42;7.45;;;;;;;;;;5075299;28;20028;-53
2021/11/17 02:41:12;;;;;;;38.03;6.93;;;;;;;;;;5076468;28;20051;-52
2021/11/17 02:43:49;;;;;;;29.90;6.43;;;;;;;;;;5073852;28;20499;-53
2021/11/17 02:46:22;;;;;;;30.25;6.45;;;;;;;;;;5055656;28;20408;-51
2021/11/17 02:48:50;;;;;;;31.85;6.13;;;;;;;;;;5074407;28;20055;-56
2021/11/17 02:51:22;;;;;;;41.20;7.03;;;;;;;;;;5076912;28;20035;-51
2021/11/17 02:53:49;;;;;;;36.97;6.32;;;;;;;;;;5073731;28;20016;-50
2021/11/17 02:56:32;;;;;;;33.90;7.03;;;;;;;;;;5073837;28;20024;-49
2021/11/17 02:59:06;;;;;;;36.92;6.63;;;;;;;;;;5070643;28;20015;-49
2021/11/17 03:01:45;;;;;;;30.98;6.10;;;;;;;;;;5073646;28;20070;-54
2021/11/17 03:04:15;;;;;;;29.85;5.38;;;;;;;;;;5073472;28;20100;-50
2021/11/17 03:06:54;;;;;;;30.48;6.65;;;;;;;;;;5091192;28;20016;-53
2021/11/17 03:09:44;;;;;;;24.80;5.57;;;;;;;;;;5078220;28;20032;-50
2021/11/17 03:12:20;;;;;;;32.65;5.55;;;;;;;;;;5075632;28;20496;-50
2021/11/17 03:14:59;;;;;;;33.78;6.25;;;;;;;;;;5073114;28;20020;-51
2021/11/17 03:17:26;;;;;;;27.98;6.45;;;;;;;;;;5073448;28;20021;-48
2021/11/17 03:20:06;;;;;;;31.30;5.63;;;;;;;;;;5071395;28;20016;-49
2021/11/17 03:22:36;;;;;;;26.85;5.57;;;;;;;;;;5073387;28;20028;-47
2021/11/17 03:25:27;;;;;;;28.55;5.63;;;;;;;;;;5075502;28;20024;-51
2021/11/17 03:27:54;;;;;;;34.75;5.75;;;;;;;;;;5072517;28;20035;-46
2021/11/17 03:30:28;;;;;;;24.15;5.55;;;;;;;;;;5074631;28;20020;-51
2021/11/17 03:33:12;;;;;;;33.13;5.80;;;;;;;;;;5073313;28;20066;-49
2021/11/17 03:35:42;;;;;;;27.63;6.15;;;;;;;;;;5093346;28;20020;-48
2021/11/17 03:38:17;;;;;;;20.23;5.25;;;;;;;;;;5092320;28;20024;-46
2021/11/17 03:40:47;;;;;;;26.15;5.72;;;;;;;;;;5074764;28;20020;-47
2021/11/17 03:43:26;;;;;;;34.42;5.55;;;;;;;;;;5072836;28;20100;-49
2021/11/17 03:46:09;;;;;;;25.08;5.15;;;;;;;;;;5073411;28;20052;-55
2021/11/17 03:48:45;;;;;;;19.08;5.40;;;;;;;;;;5073163;28;20046;-48
2021/11/17 03:51:34;;;;;;;22.90;5.10;;;;;;;;;;5073968;28;20047;-55
2021/11/17 03:54:07;;;;;;;22.08;4.72;;;;;;;;;;5073427;28;20063;-49
2021/11/17 03:56:49;;;;;;;23.73;4.88;;;;;;;;;;5073656;28;20028;-50
2021/11/17 03:59:27;;;;;;;26.67;5.95;;;;;;;;;;5072612;28;20024;-46
2021/11/17 04:02:20;;;;;;;26.55;5.32;;;;;;;;;;5093697;28;20035;-46
2021/11/17 04:04:47;;;;;;;20.00;5.45;;;;;;;;;;5089618;28;20043;-51
2021/11/17 04:07:20;;;;;;;25.42;6.13;;;;;;;;;;5093619;28;20032;-54
2021/11/17 04:09:56;;;;;;;23.98;4.63;;;;;;;;;;5082702;28;20547;-54
2021/11/17 04:12:29;;;;;;;22.42;4.97;;;;;;;;;;5073454;28;20080;-56
2021/11/17 04:15:15;;;;;;;23.13;4.80;;;;;;;;;;5073163;28;20475;-51
2021/11/17 04:18:00;;;;;;;22.83;4.63;;;;;;;;;;5073440;28;20024;-56
2021/11/17 04:20:48;;;;;;;25.20;5.53;;;;;;;;;;5071645;28;20032;-54
2021/11/17 04:23:24;;;;;;;23.58;4.95;;;;;;;;;;5073077;28;20021;-54
2021/11/17 04:26:10;;;;;;;23.83;5.63;;;;;;;;;;5073322;28;20038;-50
2021/11/17 04:28:50;;;;;;;22.15;4.97;;;;;;;;;;5072823;28;20071;-51
2021/11/17 04:31:35;;;;;;;18.38;5.25;;;;;;;;;;5071820;28;20506;-47
2021/11/17 04:34:10;;;;;;;18.17;5.35;;;;;;;;;;5072641;28;20062;-46
2021/11/17 04:36:41;;;;;;;24.70;6.00;;;;;;;;;;5072831;28;20365;-46
2021/11/17 04:39:20;;;;;;;19.70;4.97;;;;;;;;;;5072787;28;20031;-48
2021/11/17 04:42:05;;;;;;;19.35;6.03;;;;;;;;;;5072514;28;20028;-48
2021/11/17 04:44:32;;;;;;;26.25;5.90;;;;;;;;;;5072309;28;20025;-47
2021/11/17 04:47:02;;;;;;;18.65;5.85;;;;;;;;;;5072804;28;20349;-44
2021/11/17 04:49:51;;;;;;;21.25;5.25;;;;;;;;;;5072476;28;20043;-46
2021/11/17 04:52:44;;;;;;;22.77;6.22;;;;;;;;;;5086401;28;20032;-45
2021/11/17 04:55:17;;;;;;;19.75;5.50;;;;;;;;;;5054529;28;20503;-44
2021/11/17 04:57:47;;;;;;;15.02;5.10;;;;;;;;;;5092406;28;20118;-45
2021/11/17 05:00:38;;;;;;;18.45;5.63;;;;;;;;;;5089581;28;20028;-54
2021/11/17 05:03:14;;;;;;;18.13;5.72;;;;;;;;;;5072153;28;20111;-56
2021/11/17 05:05:41;;;;;;;20.27;5.22;;;;;;;;;;5072485;28;20024;-54
2021/11/17 05:08:14;;;;;;;20.77;5.38;;;;;;;;;;5071444;28;20025;-56
2021/11/17 05:10:47;;;;;;;20.08;6.00;;;;;;;;;;5071212;28;20032;-52
2021/11/17 05:13:33;;;;;;;19.38;6.00;;;;;;;;;;5090660;28;20048;-56
2021/11/17 05:16:07;;;;;;;21.77;6.13;;;;;;;;;;5092432;28;20031;-47
2021/11/17 05:18:49;;;;;;;16.92;4.78;;;;;;;;;;5083511;28;20031;-45
2021/11/17 05:21:27;;;;;;;20.70;5.97;;;;;;;;;;5084400;28;20492;-43
2021/11/17 05:24:03;;;;;;;18.73;5.22;;;;;;;;;;5091909;28;20364;-48
2021/11/17 05:26:55;;;;;;;17.52;5.20;;;;;;;;;;5092498;28;20024;-43
2021/11/17 05:29:28;;;;;;;18.63;5.33;;;;;;;;;;5074096;28;20036;-49
2021/11/17 05:32:11;;;;;;;18.10;4.97;;;;;;;;;;5084221;28;20476;-44
2021/11/17 05:34:38;;;;;;;16.27;4.95;;;;;;;;;;5092000;28;20028;-44
2021/11/17 05:37:11;;;;;;;13.68;5.30;;;;;;;;;;5092301;28;20123;-47
2021/11/17 05:39:56;;;;;;;20.88;5.50;;;;;;;;;;5091707;28;20035;-48
2021/11/17 05:42:40;;;;;;;21.05;5.78;;;;;;;;;;5084023;28;20434;-44
2021/11/17 05:45:13;;;;;;;21.88;5.65;;;;;;;;;;5073430;28;20049;-48
2021/11/17 05:48:00;;;;;;;16.92;5.80;;;;;;;;;;5092101;28;20009;-42
2021/11/17 05:50:33;;;;;;;18.45;5.57;;;;;;;;;;5091723;28;20059;-46
2021/11/17 05:53:00;;;;;;;14.07;5.38;;;;;;;;;;5075486;28;20134;-48
2021/11/17 05:55:30;;;;;;;19.95;6.15;;;;;;;;;;5071552;28;20054;-45
2021/11/17 05:58:07;;;;;;;14.45;5.00;;;;;;;;;;5071329;28;20396;-44
2021/11/17 06:00:33;;;;;;;18.77;5.28;;;;;;;;;;5071480;28;20035;-44
2021/11/17 06:03:03;;;;;;;13.80;5.13;;;;;;;;;;5070185;28;20012;-50
2021/11/17 06:05:30;;;;;;;16.27;5.38;;;;;;;;;;5071353;28;20033;-48
2021/11/17 06:07:57;;;;;;;19.50;5.75;;;;;;;;;;5071278;28;20020;-48
2021/11/17 06:10:31;;;;;;;18.33;5.57;;;;;;;;;;5070467;28;20035;-47
2021/11/17 06:12:59;;;;;;;18.05;5.38;;;;;;;;;;5074177;28;20052;-45
2021/11/17 06:15:26;;;;;;;17.75;5.18;;;;;;;;;;5091513;28;20024;-43
2021/11/17 06:17:55;;;;;;;17.98;5.72;;;;;;;;;;5091802;28;20024;-53
2021/11/17 06:20:24;;;;;;;12.98;5.13;;;;;;;;;;5091472;28;20095;-50
2021/11/17 06:22:53;;;;;;;14.10;5.18;;;;;;;;;;5084380;28;20041;-54
2021/11/17 06:25:22;;;;;;;14.30;5.53;;;;;;;;;;5073165;28;20430;-49
2021/11/17 06:27:54;;;;;;;12.07;5.20;;;;;;;;;;5091678;28;20027;-50
2021/11/17 06:30:22;;;;;;;14.52;5.53;;;;;;;;;;5091451;28;20028;-53
2021/11/17 06:32:50;;;;;;;14.35;5.70;;;;;;;;;;5086190;28;20020;-50
2021/11/17 06:35:17;;;;;;;18.65;6.18;;;;;;;;;;5070958;28;20016;-53
2021/11/17 06:37:45;;;;;;;16.65;6.25;;;;;;;;;;5071329;28;20443;-49
2021/11/17 06:40:15;;;;;;;17.20;5.47;;;;;;;;;;5070782;28;20025;-43
2021/11/17 06:42:44;;;;;;;17.58;5.70;;;;;;;;;;5068887;28;20060;-47
2021/11/17 06:45:15;;;;;;;18.85;5.20;;;;;;;;;;5086972;28;20426;-48
2021/11/17 06:47:42;;;;;;;13.50;5.65;;;;;;;;;;5091371;28;20024;-49
2021/11/17 06:50:09;;;;;;;15.73;4.93;;;;;;;;;;5090885;28;20035;-52
2021/11/17 06:52:37;;;;;;;16.95;5.93;;;;;;;;;;5072891;28;20387;-47
2021/11/17 06:55:04;;;;;;;10.50;5.00;;;;;;;;;;5069713;28;20380;-44
2021/11/17 06:57:31;;;;;;;15.52;5.60;;;;;;;;;;5070887;28;20055;-53
2021/11/17 06:59:59;;;;;;;13.50;5.53;;;;;;;;;;5071005;28;20017;-47
2021/11/17 07:02:26;;;;;;;14.55;5.70;;;;;;;;;;5070715;28;20102;-47
2021/11/17 07:04:53;;;;;;;16.05;5.80;;;;;;;;;;5078770;28;20080;-43
2021/11/17 07:07:20;;;;;;;14.52;5.40;;;;;;;;;;5091163;28;20020;-47
2021/11/17 07:09:46;;;;;;;11.90;5.20;;;;;;;;;;5090700;28;20119;-47
2021/11/17 07:12:14;;;;;;;14.68;5.40;;;;;;;;;;5090248;28;20050;-44
2021/11/17 07:14:42;;;;;;;16.27;5.00;;;;;;;;;;5083494;28;20028;-48
2021/11/17 07:17:09;;;;;;;16.85;5.43;;;;;;;;;;5091092;28;20023;-46
2021/11/17 07:19:36;;;;;;;15.75;5.45;;;;;;;;;;5090794;28;20020;-54
2021/11/17 07:22:04;;;;;;;12.32;5.60;;;;;;;;;;5092728;28;20073;-53
2021/11/17 07:24:31;;;;;;;13.32;5.38;;;;;;;;;;5087019;28;20040;-53
2021/11/17 07:26:59;;;;;;;13.02;5.10;;;;;;;;;;5094489;28;20024;-55
2021/11/17 07:29:26;;;;;;;13.88;5.25;;;;;;;;;;5094568;28;20028;-56
2021/11/17 07:31:53;;;;;;;12.52;5.50;;;;;;;;;;5094233;28;20020;-53
2021/11/17 07:34:20;;;;;;;14.00;5.22;;;;;;;;;;5086000;28;20630;-47
2021/11/17 07:36:47;;;;;;;15.75;4.95;;;;;;;;;;5074239;28;20029;-56
2021/11/17 07:39:16;;;;;;;12.35;4.75;;;;;;;;;;5074133;28;20021;-52
2021/11/17 07:41:44;;;;;;;13.35;5.15;;;;;;;;;;5073969;28;20074;-56
2021/11/17 07:44:16;;;;;;;14.70;4.90;;;;;;;;;;5072369;28;20013;-51
2021/11/17 07:46:43;;;;;;;13.35;5.10;;;;;;;;;;5090911;28;20479;-55
2021/11/17 07:49:11;;;;;;;12.45;4.43;;;;;;;;;;5093975;28;20031;-48
2021/11/17 07:51:39;;;;;;;15.45;4.93;;;;;;;;;;5093869;28;20021;-51
2021/11/17 07:54:06;;;;;;;11.60;4.65;;;;;;;;;;5075551;28;20401;-46
2021/11/17 07:56:34;;;;;;;15.25;4.93;;;;;;;;;;5086831;28;20062;-46
2021/11/17 07:59:02;;;;;;;11.98;4.38;;;;;;;;;;5094113;28;20103;-42
2021/11/17 08:01:29;;;;;;;13.82;4.45;;;;;;;;;;5094020;28;20043;-43
2021/11/17 08:03:56;;;;;;;8.95;4.00;;;;;;;;;;5093117;28;20048;-42
2021/11/17 08:06:25;;;;;;;7.40;4.00;;;;;;;;;;5087577;28;20043;-45
2021/11/17 08:08:52;;;;;;;9.82;4.25;;;;;;;;;;5093844;28;20020;-46
2021/11/17 08:11:20;;;;;;;8.82;3.78;;;;;;;;;;5093243;28;20032;-45
2021/11/17 08:13:47;;;;;;;9.95;3.95;;;;;;;;;;5093079;28;20404;-43
2021/11/17 08:16:15;;;;;;;10.75;4.07;;;;;;;;;;5086073;28;20024;-56
2021/11/17 08:18:42;;;;;;;8.88;4.28;;;;;;;;;;5093329;28;20081;-58
2021/11/17 08:21:10;;;;;;;10.38;4.30;;;;;;;;;;5093560;28;20020;-52
2021/11/17 08:23:38;;;;;;;10.63;4.60;;;;;;;;;;5093242;28;20044;-56
2021/11/17 08:26:05;;;;;;;8.65;4.05;;;;;;;;;;5081517;28;20077;-55
2021/11/17 08:28:32;;;;;;;9.63;3.92;;;;;;;;;;5073013;28;20555;-56
2021/11/17 08:30:59;;;;;;;9.18;3.55;;;;;;;;;;5073162;28;20380;-53
2021/11/17 08:33:26;;;;;;;7.65;3.30;;;;;;;;;;5072343;28;20532;-51
2021/11/17 08:35:53;;;;;;;10.40;3.92;;;;;;;;;;5070815;28;20033;-46
2021/11/17 08:38:22;;;;;;;10.45;4.00;;;;;;;;;;5073095;28;20031;-52
2021/11/17 08:40:52;;;;;;;10.40;3.80;;;;;;;;;;5073173;28;20028;-57
2021/11/17 08:43:19;;;;;;;9.18;3.60;;;;;;;;;;5072219;28;20024;-51
2021/11/17 08:45:48;;;;;;;8.45;3.58;;;;;;;;;;5071867;28;20391;-53
2021/11/17 08:48:15;;;;;;;7.45;3.50;;;;;;;;;;5090825;28;20019;-53
2021/11/17 08:50:43;;;;;;;9.30;3.95;;;;;;;;;;5092927;28;20483;-54
2021/11/17 08:53:11;;;;;;;9.88;3.95;;;;;;;;;;5092611;28;20077;-51
2021/11/17 08:55:42;;;;;;;7.00;3.53;;;;;;;;;;5092455;28;20077;-55
2021/11/17 08:58:09;;;;;;;9.77;3.40;;;;;;;;;;5085662;28;20031;-55
2021/11/17 09:00:36;;;;;;;10.10;3.50;;;;;;;;;;5092712;28;20099;-48
2021/11/17 09:03:04;;;;;;;10.43;3.83;;;;;;;;;;5092488;28;21039;-53
2021/11/17 09:05:34;;;;;;;10.07;3.53;;;;;;;;;;5092593;28;20077;-54
2021/11/17 09:08:01;;;;;;;7.13;3.50;;;;;;;;;;5084707;28;20024;-52
2021/11/17 09:10:30;;;;;;;7.22;3.33;;;;;;;;;;5092387;28;20127;-53
2021/11/17 09:12:57;;;;;;;7.18;3.58;;;;;;;;;;5092229;28;20051;-54
2021/11/17 09:15:25;;;;;;;8.38;3.35;;;;;;;;;;5092157;28;20447;-54
2021/11/17 09:17:52;;;;;;;7.75;3.17;;;;;;;;;;5074290;28;20483;-53
2021/11/17 09:20:20;;;;;;;7.15;3.17;;;;;;;;;;5071359;28;20034;-45
2021/11/17 09:22:48;;;;;;;8.38;3.55;;;;;;;;;;5071813;28;20021;-44
2021/11/17 09:25:15;;;;;;;7.22;3.03;;;;;;;;;;5052889;28;20031;-42
2021/11/17 09:27:42;;;;;;;6.63;3.30;;;;;;;;;;5074875;28;20020;-51
2021/11/17 09:30:12;;;;;;;6.45;2.95;;;;;;;;;;5091721;28;20116;-49
2021/11/17 09:32:39;;;;;;;7.10;3.10;;;;;;;;;;5091486;28;20095;-51
2021/11/17 09:35:08;;;;;;;8.98;3.60;;;;;;;;;;5091579;28;20496;-56
2021/11/17 09:37:35;;;;;;;7.10;3.33;;;;;;;;;;5081441;28;20032;-51
2021/11/17 09:40:01;;;;;;;6.38;2.80;;;;;;;;;;5071495;28;20032;-52
2021/11/17 09:42:28;;;;;;;6.97;2.80;;;;;;;;;;5071829;28;20078;-50
2021/11/17 09:44:56;;;;;;;6.50;2.88;;;;;;;;;;5069570;28;20052;-53
2021/11/17 09:47:26;;;;;;;6.75;3.15;;;;;;;;;;5070080;28;20649;-55
2021/11/17 09:49:58;;;;;;;11.88;2.95;;;;;;;;;;5070653;28;20081;-51
2021/11/17 09:52:29;;;;;;;7.03;3.03;;;;;;;;;;5071332;28;20032;-55
2021/11/17 09:55:17;;;;;;;8.43;2.80;;;;;;;;;;5052296;28;20032;-52
2021/11/17 09:57:46;;;;;;;7.07;3.08;;;;;;;;;;5068816;28;20654;-51
2021/11/17 10:00:20;;;;;;;6.13;2.97;;;;;;;;;;5070416;28;20031;-56
2021/11/17 10:02:47;;;;;;;5.63;3.05;;;;;;;;;;5070912;28;20025;-54
2021/11/17 10:05:17;;;;;;;7.60;2.78;;;;;;;;;;5070439;28;20388;-50
2021/11/17 10:10:41;;;;;;;5.85;2.50;;;;;;;;;;5088386;28;20542;-50
2021/11/17 10:13:16;;;;;;;7.18;2.78;;;;;;;;;;5089949;28;20052;-53
2021/11/17 10:15:45;;;;;;;6.85;2.80;;;;;;;;;;5089077;28;20102;-54
2021/11/17 10:18:12;;;;;;;7.45;3.10;;;;;;;;;;5077231;28;20055;-52
2021/11/17 10:20:49;;;;;;;5.40;2.22;;;;;;;;;;5091180;28;20051;-48
2021/11/17 10:23:22;;;;;;;6.32;2.67;;;;;;;;;;5091657;28;20038;-47
2021/11/17 10:25:50;;;;;;;7.00;2.90;;;;;;;;;;5091078;28;20096;-48
2021/11/17 10:28:23;;;;;;;4.47;2.28;;;;;;;;;;5086002;28;20555;-53
2021/11/17 10:31:09;;;;;;;6.18;2.45;;;;;;;;;;5071041;28;20035;-48
2021/11/17 10:33:55;;;;;;;7.18;2.80;;;;;;;;;;5071229;28;20028;-44
2021/11/17 10:36:37;;;;;;;5.40;2.45;;;;;;;;;;5071288;28;20476;-46
2021/11/17 10:39:18;;;;;;;7.07;2.75;;;;;;;;;;5068251;28;20496;-46
2021/11/17 10:41:53;;;;;;;6.22;2.40;;;;;;;;;;5070978;28;20573;-50
2021/11/17 10:44:34;;;;;;;6.82;2.83;;;;;;;;;;5070660;28;20086;-50
2021/11/17 10:47:07;;;;;;;5.32;1.98;;;;;;;;;;5071031;28;20778;-46
2021/11/17 10:49:35;;;;;;;;;;;;;;;;;;5068200;28;20043;-48
2021/11/17 10:52:04;;;;;;;6.25;2.45;;;;;;;;;;5082635;28;19908;-47
2021/11/17 10:54:32;;;;;;;6.03;2.65;;;;;;;;;;5071120;28;20092;-46
2021/11/17 10:57:00;;;;;;;5.35;2.28;;;;;;;;;;5072683;28;20025;-48
2021/11/17 10:59:28;;;;;;;4.03;2.05;;;;;;;;;;5074932;28;20013;-50
2021/11/17 11:01:55;;;;;;;4.25;1.95;;;;;;;;;;5095083;28;20042;-45
2021/11/17 11:04:23;;;;;;;4.80;2.08;;;;;;;;;;5094795;28;20027;-54
2021/11/17 11:06:54;;;;;;;4.00;2.28;;;;;;;;;;5094762;28;20486;-54
2021/11/17 11:09:23;;;;;;;5.18;2.20;;;;;;;;;;5088560;28;20403;-53
2021/11/17 11:11:52;;;;;;;4.72;1.90;;;;;;;;;;5074368;28;20488;-50
2021/11/17 11:14:30;;;;;;;4.75;2.05;;;;;;;;;;5074204;28;20052;-44
2021/11/17 11:17:09;;;;;;;5.18;1.80;;;;;;;;;;5074376;28;20024;-45
2021/11/17 11:19:37;;;;;;;3.60;1.83;;;;;;;;;;5071764;28;20043;-57
2021/11/17 11:22:04;;;;;;;10.35;2.95;;;;;;;;;;5072952;28;20020;-57
2021/11/17 11:24:36;;;;;;;10.40;2.15;;;;;;;;;;5074062;28;20071;-58
2021/11/17 11:27:02;;;;;;;8.10;1.75;;;;;;;;;;5074399;28;20399;-57
2021/11/17 11:29:33;;;;;;;10.35;1.75;;;;;;;;;;5072661;28;20029;-57
2021/11/17 11:32:15;;;;;;;8.85;1.55;;;;;;;;;;5089458;28;20502;-58
2021/11/17 11:34:42;;;;;;;9.98;1.38;;;;;;;;;;5086685;28;20032;-58
2021/11/17 11:37:24;;;;;;;4.50;1.90;;;;;;;;;;5073131;28;20093;-58
2021/11/17 11:39:56;;;;;;;8.40;1.63;;;;;;;;;;5075177;28;20027;-58
2021/11/17 11:42:24;;;;;;;4.10;1.60;;;;;;;;;;5072208;28;20033;-59
2021/11/17 11:44:50;;;;;;;8.60;1.65;;;;;;;;;;5073663;28;20362;-58
2021/11/17 11:47:23;;;;;;;5.35;1.60;;;;;;;;;;5073427;28;20025;-59
2021/11/17 11:49:53;;;;;;;12.85;2.20;;;;;;;;;;5073066;28;20078;-56
2021/11/17 11:52:21;;;;;;;8.48;1.40;;;;;;;;;;5086568;28;20019;-59
2021/11/17 11:54:54;;;;;;;6.30;1.63;;;;;;;;;;5093364;28;20020;-59
2021/11/17 11:57:39;;;;;;;6.30;1.67;;;;;;;;;;5093225;28;20077;-56
2021/11/17 12:00:24;;;;;;;8.40;1.90;;;;;;;;;;5084209;28;20029;-57
2021/11/17 12:02:59;;;;;;;7.70;1.90;;;;;;;;;;5072094;28;20105;-57
2021/11/17 12:05:38;;;;;;;8.05;1.80;;;;;;;;;;5072942;28;20028;-49
2021/11/17 12:08:05;;;;;;;8.93;1.80;;;;;;;;;;5071641;28;20017;-54
2021/11/17 12:10:34;;;;;;;6.45;1.60;;;;;;;;;;5072015;28;20396;-58
2021/11/17 12:13:33;;;;;;;10.52;1.58;;;;;;;;;;5071185;28;20467;-58
2021/11/17 12:16:06;;;;;;;6.93;1.77;;;;;;;;;;5029858;28;20586;-59
2021/11/17 12:18:53;;;;;;;7.80;1.67;;;;;;;;;;5072443;28;20055;-59
2021/11/17 12:21:41;;;;;;;6.28;1.30;;;;;;;;;;5055810;28;20388;-55
2021/11/17 12:24:09;;;;;;;6.53;1.60;;;;;;;;;;5060575;28;20036;-57
2021/11/17 12:26:38;;;;;;;5.57;1.60;;;;;;;;;;5076541;28;20020;-55
2021/11/17 12:29:11;;;;;;;9.15;2.20;;;;;;;;;;5091839;28;20480;-52
2021/11/17 12:31:57;;;;;;;8.23;2.33;;;;;;;;;;5092300;28;20020;-59
2021/11/17 12:34:27;;;;;;;9.45;2.03;;;;;;;;;;5071557;28;20028;-55
2021/11/17 12:37:08;;;;;;;9.52;1.95;;;;;;;;;;5071675;28;20025;-58
2021/11/17 12:39:52;;;;;;;10.38;1.80;;;;;;;;;;5078801;28;20035;-55
2021/11/17 12:42:44;;;;;;;9.25;1.70;;;;;;;;;;5091890;28;20020;-58
2021/11/17 12:45:11;;;;;;;;;;;;;;;;;;5054508;28;20499;-59
2021/11/17 12:47:46;;;;;;;10.52;2.05;;;;;;;;;;5091413;28;19947;-57
2021/11/17 12:50:15;;;;;;;7.10;1.92;;;;;;;;;;5076522;28;20048;-59
2021/11/17 12:53:02;;;;;;;8.00;1.50;;;;;;;;;;5071428;28;20043;-55
2021/11/17 12:55:44;;;;;;;8.35;1.67;;;;;;;;;;5021678;28;20461;-59
2021/11/17 12:58:13;;;;;;;5.32;1.40;;;;;;;;;;5071745;28;20016;-59
2021/11/17 13:00:40;;;;;;;10.88;2.10;;;;;;;;;;5072113;28;20554;-59
2021/11/17 13:03:09;;;;;;;7.90;1.98;;;;;;;;;;5071128;28;20642;-57
2021/11/17 13:05:41;;;;;;;13.57;1.80;;;;;;;;;;5071405;28;20472;-59
2021/11/17 13:08:07;;;;;;;14.00;1.63;;;;;;;;;;5071636;28;20024;-59
2021/11/17 13:10:38;;;;;;;9.32;1.90;;;;;;;;;;5071175;28;20075;-58
2021/11/17 13:13:13;;;;;;;7.80;1.42;;;;;;;;;;5071458;28;20392;-58
2021/11/17 13:15:55;;;;;;;8.75;1.58;;;;;;;;;;5074774;28;20031;-57
2021/11/17 13:18:24;;;;;;;7.18;1.80;;;;;;;;;;5071796;28;20541;-58
2021/11/17 13:20:51;;;;;;;7.05;1.30;;;;;;;;;;5070997;28;20024;-59
2021/11/17 13:23:24;;;;;;;8.30;1.70;;;;;;;;;;5071475;28;20024;-56
2021/11/17 13:26:12;;;;;;;11.30;1.77;;;;;;;;;;5071103;28;20412;-59
2021/11/17 13:28:40;;;;;;;6.25;1.50;;;;;;;;;;5071265;28;20392;-59
2021/11/17 13:31:33;;;;;;;13.02;1.65;;;;;;;;;;5070957;28;20432;-59
2021/11/17 13:34:06;;;;;;;8.88;1.50;;;;;;;;;;5072469;28;20039;-59
2021/11/17 13:36:45;;;;;;;7.88;1.48;;;;;;;;;;5072948;28;20093;-58
2021/11/17 13:39:13;;;;;;;11.90;1.75;;;;;;;;;;5086044;28;20055;-56
2021/11/17 13:41:41;;;;;;;13.20;2.17;;;;;;;;;;5070321;28;20078;-58
2021/11/17 13:44:09;;;;;;;9.63;1.63;;;;;;;;;;5073495;28;20040;-57
2021/11/17 13:46:37;;;;;;;13.77;1.55;;;;;;;;;;5070514;28;20078;-47
2021/11/17 13:49:05;;;;;;;11.95;1.73;;;;;;;;;;5069798;28;20029;-58
2021/11/17 13:51:32;;;;;;;13.48;1.42;;;;;;;;;;5075302;28;20507;-55
2021/11/17 13:53:59;;;;;;;11.40;2.17;;;;;;;;;;5071752;28;20032;-55
2021/11/17 13:56:28;;;;;;;7.18;1.70;;;;;;;;;;5069681;28;20012;-54
2021/11/17 13:58:56;;;;;;;9.98;1.65;;;;;;;;;;5077598;28;20073;-53
2021/11/17 14:01:23;;;;;;;17.40;2.25;;;;;;;;;;5086997;28;20021;-58
2021/11/17 14:03:50;;;;;;;14.10;2.05;;;;;;;;;;5063471;28;20016;-57
2021/11/17 14:06:18;;;;;;;15.52;2.20;;;;;;;;;;5067628;28;20126;-59
2021/11/17 14:08:45;;;;;;;17.95;1.73;;;;;;;;;;5070383;28;20892;-67
2021/11/17 14:11:13;;;;;;;12.05;1.92;;;;;;;;;;5071694;28;20033;-54
2021/11/17 14:13:40;;;;;;;8.15;2.17;;;;;;;;;;5053219;28;20430;-56
2021/11/17 14:16:07;;;;;;;18.80;2.42;;;;;;;;;;5069254;28;20054;-57
2021/11/17 14:18:35;;;;;;;13.50;1.77;;;;;;;;;;5069540;28;20021;-59
2021/11/17 14:21:03;;;;;;;10.90;2.03;;;;;;;;;;5070828;28;20032;-64
2021/11/17 14:23:32;;;;;;;18.85;1.80;;;;;;;;;;5070122;28;20472;-58
2021/11/17 14:26:00;;;;;;;14.13;2.05;;;;;;;;;;5070531;28;20033;-59
2021/11/17 14:28:33;;;;;;;15.25;2.13;;;;;;;;;;5072608;28;20055;-59
2021/11/17 14:31:10;;;;;;;10.80;1.65;;;;;;;;;;5091257;28;20035;-62
2021/11/17 14:33:37;;;;;;;10.10;1.75;;;;;;;;;;5076167;28;20020;-54
2021/11/17 14:36:06;;;;;;;12.18;1.83;;;;;;;;;;5095096;28;20504;-66
2021/11/17 14:38:33;;;;;;;10.05;1.90;;;;;;;;;;5092807;28;20107;-63
2021/11/17 14:41:01;;;;;;;11.73;1.70;;;;;;;;;;5074331;28;20029;-64
2021/11/17 14:43:28;;;;;;;8.27;1.77;;;;;;;;;;5073617;28;20078;-63
2021/11/17 14:45:55;;;;;;;11.38;1.67;;;;;;;;;;5074613;28;20033;-65
2021/11/17 14:48:23;;;;;;;7.70;1.70;;;;;;;;;;5073194;28;20063;-58
2021/11/17 14:50:51;;;;;;;16.30;1.83;;;;;;;;;;5074468;28;20044;-48
2021/11/17 14:53:18;;;;;;;27.13;2.30;;;;;;;;;;5073959;28;20507;-58
2021/11/17 14:55:45;;;;;;;15.35;1.75;;;;;;;;;;5074467;28;20380;-65
2021/11/17 14:58:12;;;;;;;24.23;1.90;;;;;;;;;;5074007;28;20016;-59
2021/11/17 15:00:44;;;;;;;14.15;1.65;;;;;;;;;;5073396;28;20017;-59
2021/11/17 15:03:11;;;;;;;16.75;2.00;;;;;;;;;;5073366;28;20025;-57
2021/11/17 15:05:38;;;;;;;10.55;1.95;;;;;;;;;;5072943;28;20123;-58
2021/11/17 15:08:14;;;;;;;15.93;1.67;;;;;;;;;;5078134;28;20015;-54
2021/11/17 15:10:42;;;;;;;17.70;1.75;;;;;;;;;;5071865;28;20036;-55
2021/11/17 15:15:58;;;;;;;14.15;1.92;;;;;;;;;;5060492;28;20111;-56
2021/11/17 15:18:26;;;;;;;22.25;1.63;;;;;;;;;;5074696;28;20105;-55
2021/11/17 15:20:54;;;;;;;18.83;1.75;;;;;;;;;;5071565;28;20056;-57
2021/11/17 15:23:22;;;;;;;12.68;1.83;;;;;;;;;;5075873;28;20035;-54
2021/11/17 15:25:50;;;;;;;14.43;1.95;;;;;;;;;;5072941;28;20028;-56
2021/11/17 15:28:28;;;;;;;14.88;1.90;;;;;;;;;;5080594;28;20040;-58
2021/11/17 15:31:00;;;;;;;12.32;1.92;;;;;;;;;;5076237;28;20468;-56
2021/11/17 15:33:27;;;;;;;24.35;2.38;;;;;;;;;;5063836;28;20017;-55
2021/11/17 15:35:54;;;;;;;16.25;1.90;;;;;;;;;;5070968;28;20024;-57
2021/11/17 15:38:22;;;;;;;20.27;2.25;;;;;;;;;;5072406;28;20017;-60
2021/11/17 15:40:50;;;;;;;14.98;2.40;;;;;;;;;;5079642;28;20031;-58
2021/11/17 15:43:18;;;;;;;15.40;2.42;;;;;;;;;;5073427;28;20418;-62
2021/11/17 15:45:45;;;;;;;14.98;2.40;;;;;;;;;;5079737;28;20050;-60
2021/11/17 15:48:13;;;;;;;18.38;3.00;;;;;;;;;;5072769;28;20461;-52
2021/11/17 15:50:44;;;;;;;21.60;3.10;;;;;;;;;;5072397;28;20383;-47
2021/11/17 15:53:11;;;;;;;20.05;3.30;;;;;;;;;;5077163;28;20032;-60
2021/11/17 15:55:38;;;;;;;28.05;4.20;;;;;;;;;;5054638;28;20032;-56
2021/11/17 15:58:06;;;;;;;32.90;4.60;;;;;;;;;;5072187;28;20442;-52
2021/11/17 16:00:33;;;;;;;28.73;5.00;;;;;;;;;;5071663;28;20056;-49
2021/11/17 16:03:03;;;;;;;31.08;4.65;;;;;;;;;;5073975;28;20126;-45
2021/11/17 16:05:31;;;;;;;28.27;4.47;;;;;;;;;;5084991;28;20418;-58
2021/11/17 16:07:58;;;;;;;28.98;4.53;;;;;;;;;;5056753;28;20388;-45
2021/11/17 16:10:26;;;;;;;33.50;5.55;;;;;;;;;;5076126;28;20029;-59
2021/11/17 16:12:53;;;;;;;28.83;4.57;;;;;;;;;;5075869;28;20111;-59
2021/11/17 16:15:21;;;;;;;26.23;4.47;;;;;;;;;;5072868;28;20567;-60
2021/11/17 16:17:48;;;;;;;23.45;4.85;;;;;;;;;;5075130;28;20067;-60
2021/11/17 16:20:18;;;;;;;25.85;3.80;;;;;;;;;;5079180;28;20040;-59
2021/11/17 16:23:08;;;;;;;29.17;4.15;;;;;;;;;;5075656;28;20016;-59
2021/11/17 16:25:37;;;;;;;23.63;3.72;;;;;;;;;;5090113;28;20024;-60
2021/11/17 16:28:14;;;;;;;31.85;4.63;;;;;;;;;;5077768;28;20544;-58
2021/11/17 16:30:43;;;;;;;27.88;4.65;;;;;;;;;;5072064;28;20142;-47
2021/11/17 16:33:11;;;;;;;30.10;5.82;;;;;;;;;;5091676;28;20069;-50
2021/11/17 16:35:39;;;;;;;35.58;3.92;;;;;;;;;;5091545;28;20066;-57
2021/11/17 16:38:07;;;;;;;23.70;4.57;;;;;;;;;;5091184;28;20032;-60
2021/11/17 16:40:35;;;;;;;31.63;4.53;;;;;;;;;;5090745;28;20070;-59
2021/11/17 16:43:02;;;;;;;20.67;3.83;;;;;;;;;;5074651;28;20020;-60
2021/11/17 16:45:30;;;;;;;24.52;3.90;;;;;;;;;;5073940;28;20027;-60
2021/11/17 16:47:57;;;;;;;20.45;3.30;;;;;;;;;;5063990;28;20046;-59
2021/11/17 16:50:24;;;;;;;25.77;4.18;;;;;;;;;;5074009;28;20124;-54
2021/11/17 16:52:52;;;;;;;28.20;4.47;;;;;;;;;;5073786;28;20538;-44
2021/11/17 16:55:21;;;;;;;24.35;4.03;;;;;;;;;;5069284;28;20028;-45
2021/11/17 16:57:50;;;;;;;25.30;4.55;;;;;;;;;;5070149;28;20017;-53
2021/11/17 17:00:19;;;;;;;30.58;4.07;;;;;;;;;;5069171;28;20552;-55
2021/11/17 17:02:46;;;;;;;25.33;4.00;;;;;;;;;;5070116;28;20027;-56
2021/11/17 17:05:14;;;;;;;23.60;3.75;;;;;;;;;;5070251;28;20081;-45
2021/11/17 17:07:41;;;;;;;18.15;3.28;;;;;;;;;;5070224;28;20013;-54
2021/11/17 17:10:13;;;;;;;25.50;3.72;;;;;;;;;;5051884;28;20040;-46
2021/11/17 17:12:41;;;;;;;21.58;3.55;;;;;;;;;;5069521;28;20041;-60
2021/11/17 17:15:09;;;;;;;23.63;4.10;;;;;;;;;;5070405;28;20094;-55
2021/11/17 17:17:37;;;;;;;23.35;3.40;;;;;;;;;;5070566;28;20357;-45
2021/11/17 17:20:07;;;;;;;15.70;3.28;;;;;;;;;;5069909;28;20020;-54
2021/11/17 17:22:34;;;;;;;17.77;3.38;;;;;;;;;;5070544;28;20034;-45
2021/11/17 17:25:01;;;;;;;23.55;4.00;;;;;;;;;;5071096;28;20020;-54
2021/11/17 17:27:29;;;;;;;20.08;3.25;;;;;;;;;;5070497;28;20021;-46
2021/11/17 17:29:57;;;;;;;19.88;3.30;;;;;;;;;;5086465;28;20115;-47
2021/11/17 17:32:24;;;;;;;20.90;3.28;;;;;;;;;;5090885;28;20020;-41
2021/11/17 17:34:52;;;;;;;23.30;3.35;;;;;;;;;;5090268;28;20043;-57